Time;durP1;ratioP1;P1;durP2;ratioP2;P2;SDS_P1;SDS_P2;PMS_P1;PMS_P2;Temp;Humidity;BMP_temperature;BMP_pressure;BME280_temperature;BME280_humidity;BME280_pressure;Samples;Min_cycle;Max_cycle;Signal;HPM_P1;HPM_P2
2023/06/23 00:00:31;;;;;;;3.25;1.42;;;;;;;;;;4735401;30;20785;-80
2023/06/23 00:02:58;;;;;;;5.50;1.85;;;;;;;;;;4731804;30;20056;-81
2023/06/23 00:05:26;;;;;;;1.75;1.50;;;;;;;;;;4729535;30;20055;-79
2023/06/23 00:07:53;;;;;;;10.07;2.45;;;;;;;;;;4729011;30;20374;-79
2023/06/23 00:10:21;;;;;;;2.35;1.50;;;;;;;;;;4739031;30;20048;-79
2023/06/23 00:12:49;;;;;;;2.72;1.63;;;;;;;;;;4723870;30;20049;-79
2023/06/23 00:15:19;;;;;;;3.50;1.40;;;;;;;;;;4735611;30;20041;-80
2023/06/23 00:17:49;;;;;;;1.40;1.30;;;;;;;;;;4726241;30;20060;-80
2023/06/23 00:20:19;;;;;;;2.20;1.42;;;;;;;;;;4736047;30;20734;-81
2023/06/23 00:22:47;;;;;;;3.25;1.50;;;;;;;;;;4733151;30;20063;-79
2023/06/23 00:25:15;;;;;;;1.10;1.05;;;;;;;;;;4736298;30;20047;-78
2023/06/23 00:27:46;;;;;;;2.55;1.40;;;;;;;;;;4741926;30;20053;-79
2023/06/23 00:30:14;;;;;;;1.83;1.13;;;;;;;;;;4725743;30;20056;-79
2023/06/23 00:32:43;;;;;;;1.73;0.93;;;;;;;;;;4730371;30;20049;-80
2023/06/23 00:35:13;;;;;;;1.50;1.02;;;;;;;;;;4740479;30;20123;-80
2023/06/23 00:37:42;;;;;;;2.20;1.13;;;;;;;;;;4739423;30;20647;-80
2023/06/23 00:40:10;;;;;;;1.40;1.10;;;;;;;;;;4739730;30;20121;-81
2023/06/23 00:42:45;;;;;;;1.17;1.00;;;;;;;;;;4730777;30;20139;-80
2023/06/23 00:45:13;;;;;;;1.13;1.10;;;;;;;;;;4737836;30;20060;-82
2023/06/23 00:47:44;;;;;;;1.38;1.25;;;;;;;;;;4742101;30;20472;-81
2023/06/23 00:50:15;;;;;;;2.17;1.40;;;;;;;;;;4734157;30;21256;-80
2023/06/23 00:52:50;;;;;;;2.30;1.45;;;;;;;;;;4736417;30;20044;-81
2023/06/23 00:55:22;;;;;;;3.15;1.58;;;;;;;;;;4734543;30;20055;-80
2023/06/23 00:57:50;;;;;;;1.10;1.00;;;;;;;;;;4738019;30;20105;-80
2023/06/23 01:03:15;;;;;;;1.90;1.42;;;;;;;;;;4744534;30;20515;-80
2023/06/23 01:05:44;;;;;;;2.85;2.33;;;;;;;;;;4732011;30;20055;-81
2023/06/23 01:08:13;;;;;;;1.17;1.00;;;;;;;;;;4733821;30;20045;-80
2023/06/23 01:11:00;;;;;;;1.10;0.88;;;;;;;;;;4733658;30;20104;-79
2023/06/23 01:13:46;;;;;;;2.47;1.38;;;;;;;;;;4725866;30;20137;-79
2023/06/23 01:16:21;;;;;;;5.55;1.15;;;;;;;;;;4730474;30;20056;-80
2023/06/23 01:18:58;;;;;;;2.03;1.40;;;;;;;;;;4735033;30;20052;-79
2023/06/23 01:21:41;;;;;;;1.70;1.30;;;;;;;;;;4732811;30;20060;-79
2023/06/23 01:24:29;;;;;;;2.22;1.45;;;;;;;;;;4741219;30;20063;-79
2023/06/23 01:27:03;;;;;;;1.92;1.63;;;;;;;;;;4743214;30;20052;-80
2023/06/23 01:29:32;;;;;;;1.63;1.50;;;;;;;;;;4728383;30;20072;-80
2023/06/23 01:32:10;;;;;;;2.60;1.70;;;;;;;;;;4727937;30;20052;-80
2023/06/23 01:34:40;;;;;;;1.80;1.50;;;;;;;;;;4731596;30;20075;-79
2023/06/23 01:37:11;;;;;;;3.92;1.52;;;;;;;;;;4742277;30;20044;-79
2023/06/23 01:39:40;;;;;;;3.70;1.45;;;;;;;;;;4728512;30;20053;-80
2023/06/23 01:42:10;;;;;;;1.42;1.33;;;;;;;;;;4723621;30;20049;-79
2023/06/23 01:44:39;;;;;;;2.05;1.48;;;;;;;;;;4733008;30;20088;-79
2023/06/23 01:47:10;;;;;;;2.95;1.40;;;;;;;;;;4726748;30;20076;-79
2023/06/23 01:49:38;;;;;;;2.47;1.40;;;;;;;;;;4742769;30;20052;-79
2023/06/23 01:52:07;;;;;;;2.03;1.65;;;;;;;;;;4730409;30;20310;-79
2023/06/23 01:54:37;;;;;;;1.30;1.20;;;;;;;;;;4725561;30;20056;-79
2023/06/23 01:57:05;;;;;;;1.70;1.60;;;;;;;;;;4729262;30;20056;-79
2023/06/23 01:59:34;;;;;;;1.75;1.50;;;;;;;;;;4727546;30;20732;-79
2023/06/23 02:02:03;;;;;;;1.40;1.30;;;;;;;;;;4727971;30;20091;-79
2023/06/23 02:04:31;;;;;;;1.98;1.42;;;;;;;;;;4729650;30;20095;-79
2023/06/23 02:06:59;;;;;;;1.45;1.35;;;;;;;;;;4727485;30;20097;-79
2023/06/23 02:09:27;;;;;;;1.63;1.52;;;;;;;;;;4727463;30;20053;-79
2023/06/23 02:11:57;;;;;;;1.23;1.23;;;;;;;;;;4727267;30;20053;-78
2023/06/23 02:14:26;;;;;;;2.28;1.45;;;;;;;;;;4731980;30;20041;-77
2023/06/23 02:16:54;;;;;;;1.77;1.55;;;;;;;;;;4734131;30;20419;-78
2023/06/23 02:19:24;;;;;;;1.60;1.50;;;;;;;;;;4735475;30;20419;-78
2023/06/23 02:21:51;;;;;;;2.58;1.33;;;;;;;;;;4738197;30;20056;-77
2023/06/23 02:24:19;;;;;;;1.60;1.50;;;;;;;;;;4729708;30;20133;-78
2023/06/23 02:26:47;;;;;;;2.75;2.10;;;;;;;;;;4740221;30;20049;-77
2023/06/23 02:29:16;;;;;;;2.30;1.58;;;;;;;;;;4723147;30;20049;-78
2023/06/23 02:31:44;;;;;;;2.35;1.98;;;;;;;;;;4739339;30;20377;-77
2023/06/23 02:34:12;;;;;;;2.72;1.98;;;;;;;;;;4726780;30;20392;-77
2023/06/23 02:36:46;;;;;;;2.47;1.90;;;;;;;;;;4729375;30;20048;-77
2023/06/23 02:39:17;;;;;;;1.98;1.77;;;;;;;;;;4726678;30;20052;-76
2023/06/23 02:41:46;;;;;;;1.70;1.60;;;;;;;;;;4727117;30;20068;-77
2023/06/23 02:44:27;;;;;;;2.83;1.80;;;;;;;;;;4728798;30;20131;-77
2023/06/23 02:46:56;;;;;;;2.00;1.90;;;;;;;;;;4743092;30;20049;-77
2023/06/23 02:49:30;;;;;;;2.83;1.77;;;;;;;;;;4727407;30;20498;-79
2023/06/23 02:51:59;;;;;;;1.77;1.67;;;;;;;;;;4727328;30;21180;-77
2023/06/23 02:54:31;;;;;;;1.80;1.70;;;;;;;;;;4747738;30;20041;-77
2023/06/23 02:56:59;;;;;;;2.22;2.00;;;;;;;;;;4730351;30;20084;-76
2023/06/23 02:59:28;;;;;;;2.13;1.52;;;;;;;;;;4724005;30;20061;-77
2023/06/23 03:01:57;;;;;;;1.83;1.70;;;;;;;;;;4739184;30;20060;-76
2023/06/23 03:04:24;;;;;;;2.22;1.50;;;;;;;;;;4728039;30;20575;-78
2023/06/23 03:06:52;;;;;;;1.85;1.60;;;;;;;;;;4739009;30;20045;-76
2023/06/23 03:09:20;;;;;;;1.90;1.70;;;;;;;;;;4757349;30;20045;-77
2023/06/23 03:11:47;;;;;;;1.58;1.48;;;;;;;;;;4742614;30;20423;-77
2023/06/23 03:14:15;;;;;;;1.83;1.70;;;;;;;;;;4739185;30;20052;-77
2023/06/23 03:16:47;;;;;;;1.70;1.60;;;;;;;;;;4728312;30;20496;-78
2023/06/23 03:19:19;;;;;;;1.33;1.30;;;;;;;;;;4742224;30;20099;-77
2023/06/23 03:21:51;;;;;;;1.60;1.50;;;;;;;;;;4724608;30;20053;-77
2023/06/23 03:24:20;;;;;;;1.83;1.50;;;;;;;;;;4726475;30;20064;-77
2023/06/23 03:26:50;;;;;;;1.40;1.30;;;;;;;;;;4729767;30;20064;-77
2023/06/23 03:29:21;;;;;;;1.23;1.17;;;;;;;;;;4725042;30;20061;-78
2023/06/23 03:31:50;;;;;;;1.52;1.42;;;;;;;;;;4724220;30;20201;-78
2023/06/23 03:34:19;;;;;;;2.22;1.52;;;;;;;;;;4726042;30;20057;-77
2023/06/23 03:36:47;;;;;;;1.58;1.40;;;;;;;;;;4725558;30;20514;-77
2023/06/23 03:39:18;;;;;;;2.00;1.80;;;;;;;;;;4724387;30;20405;-77
2023/06/23 03:41:46;;;;;;;1.50;1.40;;;;;;;;;;4725045;30;20076;-77
2023/06/23 03:44:16;;;;;;;1.45;1.35;;;;;;;;;;4725938;30;20127;-77
2023/06/23 03:46:44;;;;;;;2.88;1.70;;;;;;;;;;4725282;30;20049;-77
2023/06/23 03:49:13;;;;;;;1.98;1.30;;;;;;;;;;4727098;30;20044;-77
2023/06/23 03:51:41;;;;;;;1.65;1.40;;;;;;;;;;4726082;30;20059;-77
2023/06/23 03:54:10;;;;;;;1.55;1.45;;;;;;;;;;4723862;30;20110;-76
2023/06/23 03:56:39;;;;;;;1.50;1.40;;;;;;;;;;4728177;30;20080;-76
2023/06/23 03:59:08;;;;;;;1.45;1.35;;;;;;;;;;4726771;30;20053;-77
2023/06/23 04:01:36;;;;;;;1.25;1.15;;;;;;;;;;4724888;30;20041;-76
2023/06/23 04:04:04;;;;;;;1.20;1.10;;;;;;;;;;4723952;30;20061;-77
2023/06/23 04:06:33;;;;;;;1.42;1.33;;;;;;;;;;4724983;30;20052;-76
2023/06/23 04:09:02;;;;;;;1.33;1.30;;;;;;;;;;4726043;30;20045;-76
2023/06/23 04:11:30;;;;;;;2.17;1.65;;;;;;;;;;4727266;30;20057;-77
2023/06/23 04:13:58;;;;;;;2.15;1.50;;;;;;;;;;4725576;30;20056;-77
2023/06/23 04:16:26;;;;;;;1.60;1.50;;;;;;;;;;4726157;30;20048;-77
2023/06/23 04:18:55;;;;;;;1.33;1.23;;;;;;;;;;4726730;30;20563;-76
2023/06/23 04:21:23;;;;;;;1.20;1.10;;;;;;;;;;4726729;30;20045;-77
2023/06/23 04:23:51;;;;;;;1.30;1.20;;;;;;;;;;4725284;30;20118;-77
2023/06/23 04:26:19;;;;;;;1.52;1.30;;;;;;;;;;4723108;30;20113;-77
2023/06/23 04:28:47;;;;;;;1.48;1.33;;;;;;;;;;4723611;30;20163;-77
2023/06/23 04:31:16;;;;;;;1.10;1.10;;;;;;;;;;4733529;30;20165;-77
2023/06/23 04:33:44;;;;;;;1.70;1.33;;;;;;;;;;4719577;30;20049;-77
2023/06/23 04:36:15;;;;;;;1.60;1.50;;;;;;;;;;4715574;30;20064;-77
2023/06/23 04:38:42;;;;;;;;;;;;;;;;;;4721259;30;20061;-77
2023/06/23 04:41:13;;;;;;;3.90;1.10;;;;;;;;;;4716013;30;20031;-77
2023/06/23 04:43:42;;;;;;;1.05;1.05;;;;;;;;;;4715261;30;20504;-77
2023/06/23 04:46:11;;;;;;;1.58;1.27;;;;;;;;;;4726395;30;20076;-77
2023/06/23 04:48:42;;;;;;;1.10;1.10;;;;;;;;;;4726998;30;20083;-77
2023/06/23 04:51:10;;;;;;;1.52;1.33;;;;;;;;;;4738509;30;20059;-77
2023/06/23 04:53:39;;;;;;;2.05;1.20;;;;;;;;;;4739638;30;20328;-77
2023/06/23 04:56:08;;;;;;;1.50;1.10;;;;;;;;;;4733179;30;20063;-77
2023/06/23 04:58:38;;;;;;;0.95;0.95;;;;;;;;;;4726722;30;20049;-77
2023/06/23 05:01:09;;;;;;;1.10;1.10;;;;;;;;;;4739044;30;20059;-77
2023/06/23 05:03:37;;;;;;;1.15;1.10;;;;;;;;;;4729372;30;20406;-77
2023/06/23 05:06:05;;;;;;;1.73;1.10;;;;;;;;;;4727221;30;20405;-77
2023/06/23 05:08:33;;;;;;;1.20;1.20;;;;;;;;;;4735504;30;20067;-77
2023/06/23 05:11:05;;;;;;;1.80;1.33;;;;;;;;;;4738763;30;20063;-77
2023/06/23 05:13:34;;;;;;;1.23;0.95;;;;;;;;;;4732989;30;20084;-77
2023/06/23 05:16:03;;;;;;;1.20;1.10;;;;;;;;;;4732942;30;20527;-77
2023/06/23 05:18:32;;;;;;;1.45;1.10;;;;;;;;;;4739461;30;20048;-77
2023/06/23 05:21:01;;;;;;;1.30;1.20;;;;;;;;;;4732826;30;20079;-77
2023/06/23 05:23:29;;;;;;;1.73;1.20;;;;;;;;;;4729173;30;20049;-77
2023/06/23 05:26:14;;;;;;;1.33;1.23;;;;;;;;;;4736790;30;20062;-77
2023/06/23 05:28:44;;;;;;;2.88;0.93;;;;;;;;;;4737122;30;20490;-77
2023/06/23 05:31:12;;;;;;;1.20;1.00;;;;;;;;;;4737941;30;20056;-76
2023/06/23 05:33:40;;;;;;;0.90;0.90;;;;;;;;;;4732534;30;20053;-77
2023/06/23 05:36:10;;;;;;;1.20;1.10;;;;;;;;;;4728978;30;20064;-77
2023/06/23 05:38:37;;;;;;;1.25;1.25;;;;;;;;;;4731534;30;20056;-77
2023/06/23 05:41:05;;;;;;;1.20;1.10;;;;;;;;;;4733708;30;20064;-78
2023/06/23 05:43:32;;;;;;;1.05;1.00;;;;;;;;;;4731529;30;20048;-78
2023/06/23 05:46:01;;;;;;;1.02;1.02;;;;;;;;;;4734230;30;20295;-76
2023/06/23 05:48:38;;;;;;;1.92;1.27;;;;;;;;;;4726917;30;20060;-78
2023/06/23 05:51:08;;;;;;;1.63;1.17;;;;;;;;;;4725259;30;20140;-77
2023/06/23 05:53:37;;;;;;;1.23;0.85;;;;;;;;;;4724124;30;20060;-78
2023/06/23 05:56:17;;;;;;;1.10;1.02;;;;;;;;;;4725662;30;20455;-77
2023/06/23 05:58:48;;;;;;;1.50;1.00;;;;;;;;;;4730105;30;20051;-77
2023/06/23 06:01:19;;;;;;;0.93;0.93;;;;;;;;;;4728288;30;20066;-77
2023/06/23 06:03:48;;;;;;;2.50;1.03;;;;;;;;;;4729052;30;20096;-77
2023/06/23 06:06:16;;;;;;;1.55;1.30;;;;;;;;;;4728569;30;20356;-77
2023/06/23 06:08:44;;;;;;;1.48;0.98;;;;;;;;;;4732231;30;20059;-78
2023/06/23 06:11:16;;;;;;;0.93;0.93;;;;;;;;;;4724234;30;20049;-77
2023/06/23 06:13:43;;;;;;;;;;;;;;;;;;4726492;30;20542;-77
2023/06/23 06:16:11;;;;;;;0.98;0.95;;;;;;;;;;4729206;30;20013;-77
2023/06/23 06:18:39;;;;;;;1.38;0.90;;;;;;;;;;4727860;30;20508;-76
2023/06/23 06:21:07;;;;;;;1.20;1.08;;;;;;;;;;4741630;30;20157;-77
2023/06/23 06:23:36;;;;;;;1.13;1.00;;;;;;;;;;4728496;30;20438;-77
2023/06/23 06:26:05;;;;;;;0.95;0.95;;;;;;;;;;4729975;30;20060;-77
2023/06/23 06:28:34;;;;;;;1.48;1.17;;;;;;;;;;4729017;30;20090;-77
2023/06/23 06:31:02;;;;;;;1.00;1.00;;;;;;;;;;4730703;30;20131;-76
2023/06/23 06:33:30;;;;;;;1.10;1.00;;;;;;;;;;4728712;30;20049;-77
2023/06/23 06:36:03;;;;;;;0.93;0.93;;;;;;;;;;4725416;30;20048;-77
2023/06/23 06:38:35;;;;;;;2.70;1.17;;;;;;;;;;4724678;30;20504;-76
2023/06/23 06:41:06;;;;;;;1.02;0.80;;;;;;;;;;4729650;30;20059;-77
2023/06/23 06:43:34;;;;;;;0.90;0.90;;;;;;;;;;4730045;30;20212;-77
2023/06/23 06:46:02;;;;;;;3.03;1.13;;;;;;;;;;4727897;30;20061;-77
2023/06/23 06:48:32;;;;;;;0.77;0.70;;;;;;;;;;4741023;30;20139;-77
2023/06/23 06:51:02;;;;;;;0.88;0.88;;;;;;;;;;4725686;30;20147;-76
2023/06/23 06:53:30;;;;;;;1.98;0.82;;;;;;;;;;4730130;30;20084;-77
2023/06/23 06:55:57;;;;;;;0.70;0.70;;;;;;;;;;4732708;30;20059;-76
2023/06/23 06:58:25;;;;;;;1.02;0.90;;;;;;;;;;4731529;30;20057;-77
2023/06/23 07:00:53;;;;;;;1.95;0.88;;;;;;;;;;4731513;30;20049;-77
2023/06/23 07:03:21;;;;;;;2.28;1.15;;;;;;;;;;4734086;30;20106;-78
2023/06/23 07:05:49;;;;;;;0.73;0.73;;;;;;;;;;4734597;30;20162;-77
2023/06/23 07:08:16;;;;;;;0.70;0.70;;;;;;;;;;4730904;30;20491;-77
2023/06/23 07:10:44;;;;;;;0.73;0.73;;;;;;;;;;4732723;30;20152;-76
2023/06/23 07:13:11;;;;;;;0.90;0.90;;;;;;;;;;4732819;30;20071;-78
2023/06/23 07:15:39;;;;;;;1.90;0.80;;;;;;;;;;4730794;30;20365;-77
2023/06/23 07:18:06;;;;;;;0.57;0.57;;;;;;;;;;4729246;30;20056;-77
2023/06/23 07:20:34;;;;;;;1.75;0.73;;;;;;;;;;4731503;30;20064;-77
2023/06/23 07:23:02;;;;;;;0.73;0.73;;;;;;;;;;4732916;30;20058;-77
2023/06/23 07:25:29;;;;;;;0.60;0.60;;;;;;;;;;4725592;30;20148;-78
2023/06/23 07:27:57;;;;;;;1.25;0.95;;;;;;;;;;4735588;30;20052;-78
2023/06/23 07:30:24;;;;;;;1.65;0.63;;;;;;;;;;4745168;30;20114;-77
2023/06/23 07:32:52;;;;;;;0.75;0.75;;;;;;;;;;4729453;30;20048;-77
2023/06/23 07:35:20;;;;;;;0.90;0.90;;;;;;;;;;4731894;30;20488;-77
2023/06/23 07:37:47;;;;;;;0.80;0.80;;;;;;;;;;4731802;30;20140;-78
2023/06/23 07:40:14;;;;;;;1.23;0.70;;;;;;;;;;4734921;30;20098;-77
2023/06/23 07:42:42;;;;;;;0.77;0.77;;;;;;;;;;4732047;30;20118;-77
2023/06/23 07:45:10;;;;;;;1.75;0.75;;;;;;;;;;4730648;30;20078;-78
2023/06/23 07:47:38;;;;;;;0.90;0.80;;;;;;;;;;4732401;30;20075;-77
2023/06/23 07:50:06;;;;;;;0.50;0.50;;;;;;;;;;4732701;30;20118;-78
2023/06/23 07:52:33;;;;;;;0.60;0.60;;;;;;;;;;4732202;30;20527;-77
2023/06/23 07:55:01;;;;;;;0.50;0.50;;;;;;;;;;4732327;30;20052;-77
2023/06/23 07:57:28;;;;;;;1.30;1.00;;;;;;;;;;4728032;30;20052;-78
2023/06/23 07:59:56;;;;;;;0.60;0.60;;;;;;;;;;4732338;30;20131;-78
2023/06/23 08:02:23;;;;;;;0.73;0.73;;;;;;;;;;4732607;30;20452;-77
2023/06/23 08:04:51;;;;;;;1.23;0.60;;;;;;;;;;4744162;30;20080;-78
2023/06/23 08:07:18;;;;;;;1.73;1.17;;;;;;;;;;4732283;30;20061;-77
2023/06/23 08:09:46;;;;;;;0.90;0.90;;;;;;;;;;4736087;30;20056;-79
2023/06/23 08:12:13;;;;;;;0.63;0.63;;;;;;;;;;4733090;30;20057;-78
2023/06/23 08:14:42;;;;;;;0.50;0.50;;;;;;;;;;4728963;30;20093;-77
2023/06/23 08:17:09;;;;;;;0.40;0.40;;;;;;;;;;4749838;30;20499;-77
2023/06/23 08:19:37;;;;;;;3.90;0.50;;;;;;;;;;4730304;30;20053;-77
2023/06/23 08:22:05;;;;;;;0.65;0.65;;;;;;;;;;4733605;30;20063;-77
2023/06/23 08:24:33;;;;;;;0.50;0.50;;;;;;;;;;4729928;30;20064;-77
2023/06/23 08:27:00;;;;;;;0.47;0.45;;;;;;;;;;4723968;30;20594;-76
2023/06/23 08:29:29;;;;;;;0.45;0.45;;;;;;;;;;4730779;30;20139;-76
2023/06/23 08:31:57;;;;;;;0.43;0.43;;;;;;;;;;4729587;30;20114;-77
2023/06/23 08:34:24;;;;;;;1.95;0.40;;;;;;;;;;4729958;30;20056;-77
2023/06/23 08:36:52;;;;;;;2.67;0.73;;;;;;;;;;4725840;30;20674;-76
2023/06/23 08:39:20;;;;;;;0.63;0.60;;;;;;;;;;4722347;30;20055;-77
2023/06/23 08:41:48;;;;;;;0.98;0.98;;;;;;;;;;4731047;30;20076;-75
2023/06/23 08:44:16;;;;;;;1.02;1.02;;;;;;;;;;4740420;30;20052;-76
2023/06/23 08:46:44;;;;;;;1.20;1.20;;;;;;;;;;4726179;30;20096;-76
2023/06/23 08:49:34;;;;;;;1.25;1.25;;;;;;;;;;4724535;30;20072;-77
2023/06/23 08:52:02;;;;;;;1.50;1.42;;;;;;;;;;4716862;30;20052;-77
2023/06/23 08:54:30;;;;;;;1.60;1.50;;;;;;;;;;4730206;30;20052;-76
2023/06/23 08:56:58;;;;;;;2.13;1.45;;;;;;;;;;4733732;30;20402;-77
2023/06/23 08:59:25;;;;;;;1.90;1.70;;;;;;;;;;4733066;30;20049;-77
2023/06/23 09:01:53;;;;;;;1.90;1.70;;;;;;;;;;4736068;30;20079;-77
2023/06/23 09:04:21;;;;;;;2.30;2.20;;;;;;;;;;4730733;30;20114;-77
2023/06/23 09:06:48;;;;;;;1.98;1.88;;;;;;;;;;4731418;30;20056;-78
2023/06/23 09:09:16;;;;;;;2.03;1.92;;;;;;;;;;4728312;30;20056;-77
2023/06/23 09:11:44;;;;;;;2.20;2.10;;;;;;;;;;4726511;30;20064;-77
2023/06/23 09:14:11;;;;;;;1.98;1.88;;;;;;;;;;4725586;30;20075;-77
2023/06/23 09:16:40;;;;;;;1.90;1.80;;;;;;;;;;4731971;30;20056;-77
2023/06/23 09:19:08;;;;;;;2.20;2.05;;;;;;;;;;4730836;30;20323;-77
2023/06/23 09:21:36;;;;;;;2.40;2.30;;;;;;;;;;4734890;30;20478;-77
2023/06/23 09:24:05;;;;;;;2.10;2.00;;;;;;;;;;4731654;30;20126;-76
2023/06/23 09:26:45;;;;;;;1.90;1.80;;;;;;;;;;4731794;30;20056;-77
2023/06/23 09:29:17;;;;;;;2.13;2.03;;;;;;;;;;4733802;30;20048;-76
2023/06/23 09:31:46;;;;;;;3.00;2.70;;;;;;;;;;4735263;30;20052;-77
2023/06/23 09:34:23;;;;;;;2.35;2.15;;;;;;;;;;4733656;30;20447;-77
2023/06/23 09:36:52;;;;;;;2.35;2.20;;;;;;;;;;4733955;30;20049;-77
2023/06/23 09:39:20;;;;;;;2.10;2.00;;;;;;;;;;4739982;30;20032;-77
2023/06/23 09:41:56;;;;;;;2.05;1.95;;;;;;;;;;4734568;30;20084;-77
2023/06/23 09:44:32;;;;;;;2.38;2.28;;;;;;;;;;4734192;30;20163;-77
2023/06/23 09:47:03;;;;;;;2.40;2.30;;;;;;;;;;4733701;30;20107;-77
2023/06/23 09:49:41;;;;;;;2.60;2.50;;;;;;;;;;4744091;30;20401;-77
2023/06/23 09:52:10;;;;;;;2.30;2.20;;;;;;;;;;4735328;30;20060;-78
2023/06/23 09:54:39;;;;;;;2.83;2.70;;;;;;;;;;4732520;30;20068;-77
2023/06/23 09:57:13;;;;;;;1.70;1.60;;;;;;;;;;4731022;30;20102;-77
2023/06/23 09:59:41;;;;;;;2.55;2.35;;;;;;;;;;4734004;30;20054;-78
2023/06/23 10:02:25;;;;;;;2.78;2.58;;;;;;;;;;4732772;30;20486;-77
2023/06/23 10:05:02;;;;;;;2.25;2.15;;;;;;;;;;4751640;30;20083;-78
2023/06/23 10:07:31;;;;;;;3.00;2.67;;;;;;;;;;4740577;30;20116;-77
2023/06/23 10:10:09;;;;;;;2.45;2.28;;;;;;;;;;4735101;30;20126;-77
2023/06/23 10:12:48;;;;;;;2.35;2.25;;;;;;;;;;4731545;30;20076;-77
2023/06/23 10:15:15;;;;;;;2.70;2.50;;;;;;;;;;4733890;30;20497;-77
2023/06/23 10:17:44;;;;;;;1.98;1.88;;;;;;;;;;4736295;30;20057;-77
2023/06/23 10:20:12;;;;;;;2.50;2.22;;;;;;;;;;4731312;30;20119;-77
2023/06/23 10:22:40;;;;;;;2.50;2.30;;;;;;;;;;4738208;30;20276;-78
2023/06/23 10:25:09;;;;;;;2.50;2.40;;;;;;;;;;4730305;30;20087;-78
2023/06/23 10:27:37;;;;;;;2.28;2.17;;;;;;;;;;4730535;30;20127;-77
2023/06/23 10:30:06;;;;;;;2.55;2.35;;;;;;;;;;4728827;30;20060;-77
2023/06/23 10:32:35;;;;;;;3.78;3.35;;;;;;;;;;4742826;30;20137;-77
2023/06/23 10:35:09;;;;;;;2.97;2.78;;;;;;;;;;4733345;30;20152;-77
2023/06/23 10:37:38;;;;;;;3.55;3.35;;;;;;;;;;4740091;30;20528;-77
2023/06/23 10:40:18;;;;;;;2.95;2.75;;;;;;;;;;4737351;30;20252;-78
2023/06/23 10:42:48;;;;;;;3.47;3.15;;;;;;;;;;4743530;30;20060;-77
2023/06/23 10:45:16;;;;;;;2.83;2.63;;;;;;;;;;4753568;30;20055;-78
2023/06/23 10:47:44;;;;;;;3.03;2.67;;;;;;;;;;4740677;30;20052;-77
2023/06/23 10:50:13;;;;;;;2.58;2.47;;;;;;;;;;4736921;30;20052;-77
2023/06/23 10:52:40;;;;;;;2.97;2.78;;;;;;;;;;4738147;30;20061;-77
2023/06/23 10:55:37;;;;;;;3.60;3.30;;;;;;;;;;4739426;30;20057;-78
2023/06/23 10:58:19;;;;;;;2.42;2.33;;;;;;;;;;4746194;30;20123;-76
2023/06/23 11:00:58;;;;;;;3.10;2.80;;;;;;;;;;4744833;30;20056;-77
2023/06/23 11:03:27;;;;;;;2.70;2.50;;;;;;;;;;4745073;30;20060;-77
2023/06/23 11:05:55;;;;;;;3.60;3.30;;;;;;;;;;4742443;30;20044;-78
2023/06/23 11:08:31;;;;;;;3.65;3.40;;;;;;;;;;4741301;30;20056;-77
2023/06/23 11:11:02;;;;;;;3.20;3.00;;;;;;;;;;4743328;30;20048;-77
2023/06/23 11:13:37;;;;;;;2.90;2.70;;;;;;;;;;4734754;30;20060;-78
2023/06/23 11:16:06;;;;;;;6.13;3.17;;;;;;;;;;4744683;30;20313;-78
2023/06/23 11:18:33;;;;;;;3.45;2.30;;;;;;;;;;4742505;30;20239;-77
2023/06/23 11:21:03;;;;;;;2.97;2.72;;;;;;;;;;4743656;30;20241;-77
2023/06/23 11:23:31;;;;;;;5.55;3.28;;;;;;;;;;4740294;30;20059;-77
2023/06/23 11:25:59;;;;;;;3.42;3.15;;;;;;;;;;4740725;30;20059;-78
2023/06/23 11:28:37;;;;;;;3.92;3.60;;;;;;;;;;4744219;30;20052;-77
2023/06/23 11:31:08;;;;;;;4.10;3.80;;;;;;;;;;4741518;30;20128;-77
2023/06/23 11:33:39;;;;;;;4.05;3.75;;;;;;;;;;4742852;30;20052;-78
2023/06/23 11:36:14;;;;;;;4.65;3.40;;;;;;;;;;4744224;30;20060;-78
2023/06/23 11:38:43;;;;;;;3.45;3.20;;;;;;;;;;4743106;30;20069;-78
2023/06/23 11:41:12;;;;;;;3.30;3.10;;;;;;;;;;4741578;30;20055;-77
2023/06/23 11:43:42;;;;;;;3.55;3.25;;;;;;;;;;4741703;30;20048;-79
2023/06/23 11:46:13;;;;;;;3.17;2.97;;;;;;;;;;4748136;30;20057;-78
2023/06/23 11:48:41;;;;;;;3.75;3.55;;;;;;;;;;4743973;30;20056;-78
2023/06/23 11:51:09;;;;;;;3.15;2.95;;;;;;;;;;4743767;30;20056;-78
2023/06/23 11:53:38;;;;;;;3.38;3.08;;;;;;;;;;4746873;30;20045;-78
2023/06/23 11:56:05;;;;;;;3.95;3.10;;;;;;;;;;4743524;30;20052;-75
2023/06/23 11:58:34;;;;;;;3.67;3.38;;;;;;;;;;4745372;30;20052;-77
2023/06/23 12:01:04;;;;;;;3.20;3.00;;;;;;;;;;4743943;30;20056;-78
2023/06/23 12:03:32;;;;;;;3.20;3.00;;;;;;;;;;4750006;30;20404;-78
2023/06/23 12:06:00;;;;;;;3.42;3.13;;;;;;;;;;4745178;30;20082;-77
2023/06/23 12:08:28;;;;;;;3.22;3.03;;;;;;;;;;4747681;30;20057;-77
2023/06/23 12:10:56;;;;;;;4.20;3.90;;;;;;;;;;4746120;30;20108;-79
2023/06/23 12:13:23;;;;;;;2.88;2.67;;;;;;;;;;4743558;30;20075;-78
2023/06/23 12:15:53;;;;;;;3.10;2.90;;;;;;;;;;4742780;30;20053;-78
2023/06/23 12:18:25;;;;;;;2.72;2.60;;;;;;;;;;4746569;30;20087;-77
2023/06/23 12:20:52;;;;;;;4.00;3.70;;;;;;;;;;4740376;30;20049;-77
2023/06/23 12:23:20;;;;;;;3.10;2.90;;;;;;;;;;4742377;30;20087;-78
2023/06/23 12:25:50;;;;;;;3.05;2.85;;;;;;;;;;4739545;30;20122;-78
2023/06/23 12:28:19;;;;;;;3.40;3.10;;;;;;;;;;4740551;30;20120;-78
2023/06/23 12:30:50;;;;;;;3.05;2.85;;;;;;;;;;4737042;30;20519;-76
2023/06/23 12:33:22;;;;;;;3.22;3.03;;;;;;;;;;4733344;30;20516;-76
2023/06/23 12:36:02;;;;;;;2.80;2.60;;;;;;;;;;4728899;30;20049;-75
2023/06/23 12:38:31;;;;;;;2.70;2.50;;;;;;;;;;4730270;30;20052;-76
2023/06/23 12:41:18;;;;;;;2.90;2.70;;;;;;;;;;4732113;30;20133;-76
2023/06/23 12:43:47;;;;;;;3.20;3.00;;;;;;;;;;4733493;30;20116;-77
2023/06/23 12:46:15;;;;;;;2.97;2.78;;;;;;;;;;4734063;30;20070;-77
2023/06/23 12:48:43;;;;;;;3.33;3.13;;;;;;;;;;4735871;30;20136;-77
2023/06/23 12:51:12;;;;;;;3.60;3.30;;;;;;;;;;4734877;30;20546;-77
2023/06/23 12:53:45;;;;;;;3.78;3.45;;;;;;;;;;4736431;30;20387;-77
2023/06/23 12:56:12;;;;;;;3.47;3.28;;;;;;;;;;4738717;30;20083;-79
2023/06/23 12:58:39;;;;;;;2.70;2.60;;;;;;;;;;4741979;30;20054;-77
2023/06/23 13:01:07;;;;;;;4.05;3.75;;;;;;;;;;4746192;24;20060;-85
2023/06/23 13:03:34;;;;;;;4.57;4.28;;;;;;;;;;4765167;30;20606;-85
2023/06/23 13:06:02;;;;;;;3.53;3.33;;;;;;;;;;4761568;30;20058;-84
2023/06/23 13:08:30;;;;;;;3.60;3.30;;;;;;;;;;4753165;30;20080;-87
2023/06/23 13:10:57;;;;;;;4.22;3.60;;;;;;;;;;4759467;30;20084;-85
2023/06/23 13:13:24;;;;;;;3.80;3.50;;;;;;;;;;4763698;30;20059;-85
2023/06/23 13:15:52;;;;;;;3.38;3.17;;;;;;;;;;4766424;30;20052;-84
2023/06/23 13:18:19;;;;;;;3.10;2.90;;;;;;;;;;4768188;30;20060;-85
2023/06/23 13:20:46;;;;;;;3.05;2.85;;;;;;;;;;4765573;30;20308;-86
2023/06/23 13:23:14;;;;;;;3.15;2.95;;;;;;;;;;4766198;30;20105;-85
2023/06/23 13:25:42;;;;;;;4.72;3.63;;;;;;;;;;4763447;30;20058;-85
2023/06/23 13:28:09;;;;;;;3.50;3.20;;;;;;;;;;4760718;30;20086;-86
2023/06/23 13:30:37;;;;;;;3.00;2.80;;;;;;;;;;4767124;30;20419;-85
2023/06/23 13:33:04;;;;;;;2.97;2.78;;;;;;;;;;4766696;30;20119;-84
2023/06/23 13:35:31;;;;;;;3.50;3.20;;;;;;;;;;4767748;30;20043;-84
2023/06/23 13:37:59;;;;;;;3.10;2.90;;;;;;;;;;4768803;30;20498;-84
2023/06/23 13:40:27;;;;;;;2.75;2.55;;;;;;;;;;4767862;30;20113;-84
2023/06/23 13:42:54;;;;;;;2.38;2.28;;;;;;;;;;4766610;30;20055;-85
2023/06/23 13:45:22;;;;;;;2.78;2.58;;;;;;;;;;4767082;30;20122;-85
2023/06/23 13:47:49;;;;;;;2.50;2.38;;;;;;;;;;4767141;30;20416;-84
2023/06/23 13:50:16;;;;;;;2.55;2.45;;;;;;;;;;4767419;30;20519;-84
2023/06/23 13:52:45;;;;;;;3.25;3.08;;;;;;;;;;4766727;30;20060;-86
2023/06/23 13:55:13;;;;;;;2.40;2.30;;;;;;;;;;4767318;30;20048;-84
2023/06/23 14:00:41;;;;;;;2.60;2.50;;;;;;;;;;4769503;30;20052;-85
2023/06/23 14:03:08;;;;;;;2.53;2.40;;;;;;;;;;4767252;30;20503;-84
2023/06/23 14:05:36;;;;;;;2.70;2.50;;;;;;;;;;4772793;30;20071;-84
2023/06/23 14:08:20;;;;;;;2.72;2.53;;;;;;;;;;4768517;30;20136;-85
2023/06/23 14:10:47;;;;;;;2.63;2.53;;;;;;;;;;4767458;30;20069;-85
2023/06/23 14:13:15;;;;;;;3.60;3.30;;;;;;;;;;4766908;30;20055;-84
2023/06/23 14:15:42;;;;;;;2.78;2.58;;;;;;;;;;4767856;30;20509;-85
2023/06/23 14:18:09;;;;;;;2.75;2.65;;;;;;;;;;4771429;30;20043;-85
2023/06/23 14:20:37;;;;;;;2.55;2.45;;;;;;;;;;4768031;30;20431;-85
2023/06/23 14:23:04;;;;;;;2.65;2.55;;;;;;;;;;4765886;30;20054;-85
2023/06/23 14:25:32;;;;;;;2.63;2.47;;;;;;;;;;4767015;30;20072;-85
2023/06/23 14:27:59;;;;;;;2.47;2.28;;;;;;;;;;4767950;30;20134;-84
2023/06/23 14:30:27;;;;;;;3.10;2.90;;;;;;;;;;4771136;30;20121;-84
2023/06/23 14:32:55;;;;;;;2.83;2.63;;;;;;;;;;4770197;30;20058;-85
2023/06/23 14:35:24;;;;;;;2.50;2.40;;;;;;;;;;4772837;30;20043;-85
2023/06/23 14:37:51;;;;;;;2.80;2.60;;;;;;;;;;4773592;30;20067;-85
2023/06/23 14:40:19;;;;;;;3.42;2.40;;;;;;;;;;4779379;30;20091;-85
2023/06/23 14:42:46;;;;;;;2.60;2.40;;;;;;;;;;4777723;30;20040;-86
2023/06/23 14:45:13;;;;;;;2.85;2.65;;;;;;;;;;4786096;30;20051;-84
2023/06/23 14:47:41;;;;;;;3.28;3.08;;;;;;;;;;4788948;29;20119;-85
2023/06/23 14:50:10;;;;;;;2.88;2.67;;;;;;;;;;4794922;29;20032;-84
2023/06/23 14:52:37;;;;;;;3.20;3.00;;;;;;;;;;4788070;29;20048;-84
2023/06/23 14:55:05;;;;;;;2.50;2.40;;;;;;;;;;4786830;30;20038;-85
2023/06/23 14:57:32;;;;;;;2.28;2.13;;;;;;;;;;4794657;29;20078;-84
2023/06/23 15:00:00;;;;;;;2.85;2.70;;;;;;;;;;4773750;29;20537;-85
2023/06/23 15:02:27;;;;;;;2.55;2.35;;;;;;;;;;4768306;30;20951;-85